Time,TemperatureF,DewpointF,PressureIn,WindDirection,WindDirectionDegrees,WindSpeedMPH,WindSpeedGustMPH,Humidity,HourlyPrecipIn,Conditions,Clouds,dailyrainin,SoftwareType,DateUTC
2013-09-14 00:04:00,82.9,67.4,0.00,South,180,2.5,2.5,52,0.00,,,-99.99,Homeseer,2013-09-14 04:04:00,
2013-09-14 00:14:00,82.8,67.8,0.00,South,180,2.7,3.4,53,0.00,,,-99.99,Homeseer,2013-09-14 04:14:00,
2013-09-14 00:24:00,82.8,67.8,0.00,South,180,2.5,2.5,53,0.00,,,-99.99,Homeseer,2013-09-14 04:24:00,
2013-09-14 00:34:00,82.8,68.2,0.00,WSW,247,2.2,2.2,54,0.00,,,-99.99,Homeseer,2013-09-14 04:34:00,
2013-09-14 00:44:00,82.6,67.6,0.00,SSE,157,0.9,3.8,53,0.00,,,-99.99,Homeseer,2013-09-14 04:44:00,
2013-09-14 00:54:00,82.6,67.6,0.00,North,0,1.3,2.7,53,0.00,,,-99.99,Homeseer,2013-09-14 04:54:00,
2013-09-14 01:04:00,82.6,67.6,0.00,North,0,0.0,0.0,53,0.00,,,-99.99,Homeseer,2013-09-14 05:04:00,
2013-09-14 01:14:00,82.4,67.4,0.00,South,180,0.0,1.1,53,0.00,,,-99.99,Homeseer,2013-09-14 05:14:00,
2013-09-14 01:24:00,82.4,67.4,0.00,East,90,0.0,0.0,53,0.00,,,-99.99,Homeseer,2013-09-14 05:24:00,
2013-09-14 01:34:00,82.2,67.7,0.00,SW,225,0.0,0.0,54,0.00,,,-99.99,Homeseer,2013-09-14 05:34:00,
2013-09-14 01:44:00,82.0,67.9,0.00,South,180,0.0,0.0,55,0.00,,,-99.99,Homeseer,2013-09-14 05:44:00,
2013-09-14 01:54:00,82.0,68.3,0.00,WSW,247,0.0,0.0,56,0.00,,,-99.99,Homeseer,2013-09-14 05:54:00,
2013-09-14 02:04:00,81.7,68.4,0.00,WSW,247,0.0,0.0,57,0.00,,,-99.99,Homeseer,2013-09-14 06:04:00,
2013-09-14 02:14:00,81.7,68.4,0.00,WSW,247,0.0,0.0,57,0.00,,,-99.99,Homeseer,2013-09-14 06:14:00,
2013-09-14 02:24:00,81.5,68.6,0.00,WSW,247,0.0,0.0,58,0.00,,,-99.99,Homeseer,2013-09-14 06:24:00,
2013-09-14 02:34:00,81.3,68.4,0.00,WSW,247,0.0,0.0,58,0.00,,,-99.99,Homeseer,2013-09-14 06:34:00,
2013-09-14 02:46:00,81.1,68.6,0.00,WSW,247,0.0,0.0,59,0.00,,,-99.99,Homeseer,2013-09-14 06:46:00,
2013-09-14 02:56:00,81.0,68.9,0.00,WSW,247,0.0,0.0,60,0.00,,,-99.99,Homeseer,2013-09-14 06:56:00,
2013-09-14 03:06:00,80.8,68.8,0.00,WSW,247,0.0,0.0,60,0.00,,,-99.99,Homeseer,2013-09-14 07:06:00,
2013-09-14 03:16:00,80.6,69.3,0.00,WSW,247,0.0,0.0,62,0.00,,,-99.99,Homeseer,2013-09-14 07:16:00,
2013-09-14 03:26:00,80.2,69.7,0.00,WSW,247,0.0,0.0,64,0.00,,,-99.99,Homeseer,2013-09-14 07:26:00,
2013-09-14 03:36:00,80.2,70.4,0.00,WSW,247,0.0,0.0,66,0.00,,,-99.99,Homeseer,2013-09-14 07:36:00,
2013-09-14 03:46:00,80.1,71.0,0.00,WSW,247,0.0,0.0,68,0.00,,,-99.99,Homeseer,2013-09-14 07:46:00,
2013-09-14 03:56:00,79.9,71.1,0.00,WSW,247,0.0,0.0,69,0.00,,,-99.99,Homeseer,2013-09-14 07:56:00,
2013-09-14 04:06:00,79.9,71.4,0.00,WSW,247,0.0,0.0,70,0.00,,,-99.99,Homeseer,2013-09-14 08:06:00,
2013-09-14 04:16:00,79.7,71.6,0.00,WSW,247,0.0,0.0,71,0.00,,,-99.99,Homeseer,2013-09-14 08:16:00,
2013-09-14 04:26:00,79.9,71.8,0.00,WSW,247,0.0,0.0,71,0.00,,,-99.99,Homeseer,2013-09-14 08:26:00,
2013-09-14 04:36:00,79.9,72.1,0.00,WSW,247,0.0,0.0,72,0.00,,,-99.99,Homeseer,2013-09-14 08:36:00,
2013-09-14 04:46:00,79.7,71.9,0.00,WSW,247,0.0,0.0,72,0.00,,,-99.99,Homeseer,2013-09-14 08:46:00,
2013-09-14 04:56:00,79.3,72.2,0.00,WSW,247,0.0,0.0,74,0.00,,,-99.99,Homeseer,2013-09-14 08:56:00,
2013-09-14 05:06:00,79.3,72.2,0.00,WSW,247,0.0,0.0,74,0.00,,,-99.99,Homeseer,2013-09-14 09:06:00,
2013-09-14 05:16:00,79.3,72.8,0.00,WSW,247,0.0,0.0,76,0.00,,,-99.99,Homeseer,2013-09-14 09:16:00,
2013-09-14 05:26:00,79.2,73.3,0.00,WSW,247,0.0,0.0,78,0.00,,,-99.99,Homeseer,2013-09-14 09:26:00,
2013-09-14 05:36:00,79.0,73.4,0.00,WSW,247,0.0,0.0,79,0.00,,,-99.99,Homeseer,2013-09-14 09:36:00,
2013-09-14 05:46:00,79.0,73.1,0.00,WSW,247,0.0,0.0,78,0.00,,,-99.99,Homeseer,2013-09-14 09:46:00,
2013-09-14 05:56:00,79.0,73.1,0.00,WSW,247,0.0,0.0,78,0.00,,,-99.99,Homeseer,2013-09-14 09:56:00,
2013-09-14 06:06:00,78.8,72.9,0.00,WSW,247,0.0,0.0,78,0.00,,,-99.99,Homeseer,2013-09-14 10:06:00,
2013-09-14 06:16:00,78.6,73.6,0.00,WSW,247,0.0,0.0,81,0.00,,,-99.99,Homeseer,2013-09-14 10:16:00,
2013-09-14 06:26:00,78.4,73.7,0.00,WSW,247,0.0,0.0,82,0.00,,,-99.99,Homeseer,2013-09-14 10:26:00,
2013-09-14 06:36:00,78.6,73.3,0.00,WSW,247,0.0,0.0,80,0.00,,,-99.99,Homeseer,2013-09-14 10:36:00,
2013-09-14 06:46:00,78.4,73.4,0.00,WSW,247,0.0,0.0,81,0.00,,,-99.99,Homeseer,2013-09-14 10:46:00,
2013-09-14 06:56:00,78.3,73.6,0.00,WSW,247,0.0,0.0,82,0.00,,,-99.99,Homeseer,2013-09-14 10:56:00,
2013-09-14 07:06:00,78.3,74.1,0.00,WSW,247,0.0,0.0,84,0.00,,,-99.99,Homeseer,2013-09-14 11:06:00,
2013-09-14 07:16:00,78.4,74.2,0.00,WSW,247,0.0,0.0,84,0.00,,,-99.99,Homeseer,2013-09-14 11:16:00,
2013-09-14 07:26:00,78.6,74.4,0.00,WSW,247,0.0,0.0,84,0.00,,,-99.99,Homeseer,2013-09-14 11:26:00,
2013-09-14 07:36:00,78.6,75.0,0.00,WSW,247,0.0,0.0,86,0.00,,,-99.99,Homeseer,2013-09-14 11:36:00,
2013-09-14 07:46:00,79.0,74.8,0.00,WSW,247,0.0,0.0,84,0.00,,,-99.99,Homeseer,2013-09-14 11:46:00,
2013-09-14 07:56:00,79.3,75.1,0.00,WSW,247,0.0,0.0,84,0.00,,,-99.99,Homeseer,2013-09-14 11:56:00,
2013-09-14 08:06:00,79.7,75.5,0.00,WNW,297,0.0,0.0,84,0.00,,,-99.99,Homeseer,2013-09-14 12:06:00,
2013-09-14 08:16:00,80.2,75.7,0.00,WNW,297,0.0,0.0,83,0.00,,,-99.99,Homeseer,2013-09-14 12:16:00,
2013-09-14 08:26:00,80.8,76.6,0.00,WNW,297,0.0,0.0,84,0.00,,,-99.99,Homeseer,2013-09-14 12:26:00,
2013-09-14 08:36:00,81.1,76.6,0.00,North,0,2.5,2.5,83,0.00,,,-99.99,Homeseer,2013-09-14 12:36:00,
2013-09-14 08:46:00,81.7,76.0,0.00,North,0,2.0,2.7,79,0.00,,,-99.99,Homeseer,2013-09-14 12:46:00,
2013-09-14 08:56:00,82.2,75.2,0.00,North,0,1.3,2.5,75,0.00,,,-99.99,Homeseer,2013-09-14 12:56:00,
2013-09-14 09:06:00,82.8,73.2,0.00,North,0,4.5,4.5,67,0.00,,,-99.99,Homeseer,2013-09-14 13:06:00,
2013-09-14 09:16:00,83.3,73.3,0.00,North,0,2.0,2.0,66,0.00,,,-99.99,Homeseer,2013-09-14 13:16:00,
2013-09-14 09:26:00,83.8,72.7,0.00,WNW,297,0.0,0.0,63,0.00,,,-99.99,Homeseer,2013-09-14 13:26:00,
2013-09-14 09:36:00,84.6,73.0,0.00,North,0,1.3,0.0,62,0.00,,,-99.99,Homeseer,2013-09-14 13:36:00,
2013-09-14 09:46:00,85.1,72.3,0.00,North,0,2.0,2.0,59,0.00,,,-99.99,Homeseer,2013-09-14 13:46:00,
2013-09-14 09:56:00,85.5,71.5,0.00,North,0,0.0,0.0,56,0.00,,,-99.99,Homeseer,2013-09-14 13:56:00,
2013-09-14 10:06:00,86.2,72.6,0.00,North,0,0.0,1.6,57,0.00,,,-99.99,Homeseer,2013-09-14 14:06:00,
2013-09-14 10:16:00,86.4,70.2,0.00,North,0,0.0,0.0,51,0.00,,,-99.99,Homeseer,2013-09-14 14:16:00,
2013-09-14 10:26:00,87.1,70.8,0.00,SSE,157,2.5,3.6,51,0.00,,,-99.99,Homeseer,2013-09-14 14:26:00,
2013-09-14 10:36:00,86.5,67.9,0.00,SSE,157,2.5,3.4,46,0.00,,,-99.99,Homeseer,2013-09-14 14:36:00,
2013-09-14 10:46:00,86.9,67.8,0.00,ESE,112,2.9,4.9,45,0.00,,,-99.99,Homeseer,2013-09-14 14:46:00,
2013-09-14 10:56:00,87.1,66.4,0.00,North,0,3.1,3.1,42,0.00,,,-99.99,Homeseer,2013-09-14 14:56:00,
2013-09-14 11:06:00,87.3,66.0,0.00,ESE,112,2.7,3.4,41,0.00,,,-99.99,Homeseer,2013-09-14 15:06:00,
2013-09-14 11:16:00,88.0,67.2,0.00,SSE,157,1.3,2.2,42,0.00,,,-99.99,Homeseer,2013-09-14 15:16:00,
2013-09-14 11:26:00,88.3,66.9,0.00,South,180,3.1,3.1,41,0.00,,,-99.99,Homeseer,2013-09-14 15:26:00,
2013-09-14 11:36:00,87.6,65.8,0.00,South,180,3.1,3.8,40,0.00,,,-99.99,Homeseer,2013-09-14 15:36:00,
2013-09-14 11:46:00,88.2,66.3,0.00,SE,135,3.1,3.4,40,0.00,,,-99.99,Homeseer,2013-09-14 15:46:00,
2013-09-14 11:56:00,88.0,65.5,0.00,SE,135,4.5,4.5,39,0.00,,,-99.99,Homeseer,2013-09-14 15:56:00,
2013-09-14 12:06:00,88.9,66.9,0.00,ESE,112,3.4,4.3,40,0.00,,,-99.99,Homeseer,2013-09-14 16:06:00,
2013-09-14 12:16:00,88.3,65.8,0.00,ESE,112,3.1,3.8,39,0.00,,,-99.99,Homeseer,2013-09-14 16:16:00,
2013-09-14 12:26:00,89.2,66.6,0.00,SE,135,4.3,4.3,39,0.00,,,-99.99,Homeseer,2013-09-14 16:26:00,
2013-09-14 12:36:00,88.7,65.6,0.00,SSE,157,4.3,4.3,38,0.00,,,-99.99,Homeseer,2013-09-14 16:36:00,
2013-09-14 12:46:00,89.1,65.3,0.00,SSE,157,3.1,3.1,37,0.00,,,-99.99,Homeseer,2013-09-14 16:46:00,
2013-09-14 12:56:00,88.5,66.0,0.00,ESE,112,3.8,5.8,39,0.00,,,-99.99,Homeseer,2013-09-14 16:56:00,
2013-09-14 13:06:00,88.5,66.5,0.00,ESE,112,3.4,4.7,40,0.00,,,-99.99,Homeseer,2013-09-14 17:06:00,
2013-09-14 13:16:00,88.2,65.7,0.00,SSE,157,4.7,7.4,39,0.00,,,-99.99,Homeseer,2013-09-14 17:16:00,
2013-09-14 13:26:00,88.7,65.6,0.00,North,0,3.6,3.6,38,0.00,,,-99.99,Homeseer,2013-09-14 17:26:00,
2013-09-14 13:36:00,88.5,66.0,0.00,SE,135,5.6,5.6,39,0.00,,,-99.99,Homeseer,2013-09-14 17:36:00,
2013-09-14 13:46:00,88.3,65.8,0.00,SSE,157,3.6,4.0,39,0.00,,,-99.99,Homeseer,2013-09-14 17:46:00,
2013-09-14 13:56:00,88.3,65.8,0.00,SE,135,4.7,4.7,39,0.00,,,-99.99,Homeseer,2013-09-14 17:56:00,
2013-09-14 14:06:00,88.3,65.8,0.00,SE,135,3.4,4.3,39,0.00,,,-99.99,Homeseer,2013-09-14 18:06:00,
2013-09-14 14:16:00,88.5,66.0,0.00,SSE,157,4.0,4.0,39,0.00,,,-99.99,Homeseer,2013-09-14 18:16:00,
2013-09-14 14:26:00,88.2,66.3,0.00,SSE,157,4.0,4.9,40,0.00,,,-99.99,Homeseer,2013-09-14 18:26:00,
2013-09-14 14:36:00,88.5,65.4,0.00,SE,135,4.5,4.5,38,0.00,,,-99.99,Homeseer,2013-09-14 18:36:00,
2013-09-14 14:46:00,88.2,65.1,0.00,SSE,157,3.8,3.8,38,0.00,,,-99.99,Homeseer,2013-09-14 18:46:00,
2013-09-14 14:56:00,88.5,64.8,0.00,SSE,157,4.0,4.9,37,0.00,,,-99.99,Homeseer,2013-09-14 18:56:00,
2013-09-14 15:06:00,88.5,65.4,0.00,East,90,4.7,5.8,38,0.00,,,-99.99,Homeseer,2013-09-14 19:06:00,
2013-09-14 15:16:00,88.2,65.1,0.00,SE,135,4.0,6.7,38,0.00,,,-99.99,Homeseer,2013-09-14 19:16:00,
2013-09-14 15:26:00,88.3,65.2,0.00,SSE,157,2.9,4.5,38,0.00,,,-99.99,Homeseer,2013-09-14 19:26:00,
2013-09-14 15:36:00,87.8,65.4,0.00,SSE,157,3.6,4.0,39,0.00,,,-99.99,Homeseer,2013-09-14 19:36:00,
2013-09-14 15:46:00,88.5,65.4,0.00,SSE,157,3.6,8.1,38,0.00,,,-99.99,Homeseer,2013-09-14 19:46:00,
2013-09-14 15:56:00,88.2,65.7,0.00,SSE,157,3.6,3.6,39,0.00,,,-99.99,Homeseer,2013-09-14 19:56:00,
2013-09-14 16:06:00,88.5,65.4,0.00,South,180,3.8,3.8,38,0.00,,,-99.99,Homeseer,2013-09-14 20:06:00,
2013-09-14 16:16:00,88.3,65.2,0.00,SSE,157,4.5,4.9,38,0.00,,,-99.99,Homeseer,2013-09-14 20:16:00,
2013-09-14 16:26:00,88.7,65.0,0.00,SSE,157,3.4,4.3,37,0.00,,,-99.99,Homeseer,2013-09-14 20:26:00,
2013-09-14 16:36:00,88.2,64.5,0.00,ESE,112,4.5,5.8,37,0.00,,,-99.99,Homeseer,2013-09-14 20:36:00,
2013-09-14 16:46:00,88.2,65.1,0.00,SE,135,2.7,2.9,38,0.00,,,-99.99,Homeseer,2013-09-14 20:46:00,
2013-09-14 16:56:00,87.8,64.8,0.00,SSE,157,4.9,8.1,38,0.00,,,-99.99,Homeseer,2013-09-14 20:56:00,
2013-09-14 17:06:00,87.6,66.3,0.00,SE,135,3.8,3.8,41,0.00,,,-99.99,Homeseer,2013-09-14 21:06:00,
2013-09-14 17:16:00,87.6,65.2,0.00,ESE,112,3.8,3.8,39,0.00,,,-99.99,Homeseer,2013-09-14 21:16:00,
2013-09-14 17:26:00,87.3,64.4,0.00,ESE,112,4.5,5.6,38,0.00,,,-99.99,Homeseer,2013-09-14 21:26:00,
2013-09-14 17:36:00,87.3,64.4,0.00,ESE,112,3.4,5.6,38,0.00,,,-99.99,Homeseer,2013-09-14 21:36:00,
2013-09-14 17:46:00,87.1,64.2,0.00,North,0,4.5,0.0,38,0.00,,,-99.99,Homeseer,2013-09-14 21:46:00,
2013-09-14 17:56:00,86.9,64.0,0.00,ESE,112,3.4,4.3,38,0.00,,,-99.99,Homeseer,2013-09-14 21:56:00,
2013-09-14 18:06:00,86.9,64.0,0.00,SSE,157,1.3,3.1,38,0.00,,,-99.99,Homeseer,2013-09-14 22:06:00,
2013-09-14 18:16:00,86.9,64.0,0.00,North,0,1.1,3.4,38,0.00,,,-99.99,Homeseer,2013-09-14 22:16:00,
2013-09-14 18:26:00,86.2,64.0,0.00,SSE,157,2.9,2.9,39,0.00,,,-99.99,Homeseer,2013-09-14 22:26:00,
2013-09-14 18:36:00,85.8,63.6,0.00,SSE,157,3.4,3.4,39,0.00,,,-99.99,Homeseer,2013-09-14 22:36:00,
2013-09-14 18:46:00,85.6,64.6,0.00,SSE,157,2.2,3.8,41,0.00,,,-99.99,Homeseer,2013-09-14 22:46:00,
2013-09-14 18:56:00,85.6,64.6,0.00,SSE,157,3.1,3.1,41,0.00,,,-99.99,Homeseer,2013-09-14 22:56:00,
2013-09-14 19:06:00,85.3,64.3,0.00,SSE,157,2.2,3.4,41,0.00,,,-99.99,Homeseer,2013-09-14 23:06:00,
2013-09-14 19:16:00,85.1,65.2,0.00,South,180,2.5,2.5,43,0.00,,,-99.99,Homeseer,2013-09-14 23:16:00,
2013-09-14 19:26:00,84.9,67.4,0.00,SE,135,4.0,5.4,48,0.00,,,-99.99,Homeseer,2013-09-14 23:26:00,
2013-09-14 19:36:00,84.6,69.4,0.00,ESE,112,3.8,7.8,53,0.00,,,-99.99,Homeseer,2013-09-14 23:36:00,
2013-09-14 19:46:00,84.6,69.8,0.00,ESE,112,4.3,5.8,54,0.00,,,-99.99,Homeseer,2013-09-14 23:46:00,
2013-09-14 19:56:00,84.4,70.1,0.00,SW,225,4.9,4.9,55,0.00,,,-99.99,Homeseer,2013-09-14 23:56:00,
2013-09-14 20:06:00,84.2,70.3,0.00,ESE,112,4.5,4.5,56,0.00,,,-99.99,Homeseer,2013-09-15 00:06:00,
2013-09-14 20:16:00,84.2,71.1,0.00,SSE,157,4.9,4.9,58,0.00,,,-99.99,Homeseer,2013-09-15 00:16:00,
2013-09-14 20:26:00,84.2,71.5,0.00,SSE,157,5.8,6.0,59,0.00,,,-99.99,Homeseer,2013-09-15 00:26:00,
2013-09-14 20:36:00,84.0,71.7,0.00,ESE,112,4.5,4.5,60,0.00,,,-99.99,Homeseer,2013-09-15 00:36:00,
2013-09-14 20:46:00,84.0,71.3,0.00,SSE,157,6.7,6.7,59,0.00,,,-99.99,Homeseer,2013-09-15 00:46:00,
2013-09-14 20:56:00,84.0,70.5,0.00,SE,135,6.3,6.3,57,0.00,,,-99.99,Homeseer,2013-09-15 00:56:00,
2013-09-14 21:06:00,84.0,70.1,0.00,SSE,157,3.6,4.0,56,0.00,,,-99.99,Homeseer,2013-09-15 01:06:00,
2013-09-14 21:16:00,84.0,69.7,0.00,ESE,112,4.3,4.3,55,0.00,,,-99.99,Homeseer,2013-09-15 01:16:00,
2013-09-14 21:26:00,84.0,69.3,0.00,SE,135,3.6,6.3,54,0.00,,,-99.99,Homeseer,2013-09-15 01:26:00,
2013-09-14 21:36:00,84.0,68.9,0.00,ESE,112,4.3,5.4,53,0.00,,,-99.99,Homeseer,2013-09-15 01:36:00,
2013-09-14 21:46:00,83.8,66.9,0.00,South,180,4.5,4.5,49,0.00,,,-99.99,Homeseer,2013-09-15 01:46:00,
2013-09-14 21:56:00,83.8,67.4,0.00,ESE,112,3.1,3.1,50,0.00,,,-99.99,Homeseer,2013-09-15 01:56:00,
2013-09-14 22:06:00,83.8,67.4,0.00,SSE,157,4.7,4.7,50,0.00,,,-99.99,Homeseer,2013-09-15 02:06:00,
2013-09-14 22:16:00,83.8,68.3,0.00,ESE,112,4.7,4.9,52,0.00,,,-99.99,Homeseer,2013-09-15 02:16:00,
2013-09-14 22:26:00,83.8,67.8,0.00,SE,135,3.1,3.8,51,0.00,,,-99.99,Homeseer,2013-09-15 02:26:00,
2013-09-14 22:36:00,83.8,69.1,0.00,ESE,112,3.4,4.0,54,0.00,,,-99.99,Homeseer,2013-09-15 02:36:00,
2013-09-14 22:46:00,83.7,69.0,0.00,SSE,157,3.6,3.6,54,0.00,,,-99.99,Homeseer,2013-09-15 02:46:00,
2013-09-14 22:56:00,83.7,69.9,0.00,SSE,157,2.9,6.0,56,0.00,,,-99.99,Homeseer,2013-09-15 02:56:00,
2013-09-14 23:06:00,83.7,70.3,0.00,ESE,112,2.7,2.7,57,0.00,,,-99.99,Homeseer,2013-09-15 03:06:00,
2013-09-14 23:16:00,83.7,71.1,0.00,ESE,112,3.6,5.6,59,0.00,,,-99.99,Homeseer,2013-09-15 03:16:00,
2013-09-14 23:26:00,83.7,71.1,0.00,ESE,112,3.6,3.6,59,0.00,,,-99.99,Homeseer,2013-09-15 03:26:00,
2013-09-14 23:36:00,83.7,69.9,0.00,ESE,112,2.0,5.6,56,0.00,,,-99.99,Homeseer,2013-09-15 03:36:00,
2013-09-14 23:46:00,83.7,71.1,0.00,South,180,3.4,5.4,59,0.00,,,-99.99,Homeseer,2013-09-15 03:46:00,
2013-09-14 23:56:00,83.7,71.1,0.00,South,180,3.6,3.6,59,0.00,,,-99.99,Homeseer,2013-09-15 03:56:00,